sensor_id;sensor_type;location;lat;lon;timestamp;temperature;humidity
47825;DHT22;33589;48.242;14.676;2024-01-07T00:01:49;23.60;70.50
47825;DHT22;33589;48.242;14.676;2024-01-07T00:04:16;23.60;70.40
47825;DHT22;33589;48.242;14.676;2024-01-07T00:06:42;23.70;70.30
47825;DHT22;33589;48.242;14.676;2024-01-07T00:09:08;23.70;70.30
47825;DHT22;33589;48.242;14.676;2024-01-07T00:11:33;23.70;70.20
47825;DHT22;33589;48.242;14.676;2024-01-07T00:13:59;23.70;70.40
47825;DHT22;33589;48.242;14.676;2024-01-07T00:16:25;23.70;70.20
47825;DHT22;33589;48.242;14.676;2024-01-07T00:18:51;23.70;70.20
47825;DHT22;33589;48.242;14.676;2024-01-07T00:21:16;23.70;70.30
47825;DHT22;33589;48.242;14.676;2024-01-07T00:23:42;23.70;70.20
47825;DHT22;33589;48.242;14.676;2024-01-07T00:26:09;23.70;70.30
47825;DHT22;33589;48.242;14.676;2024-01-07T00:28:36;23.60;70.40
47825;DHT22;33589;48.242;14.676;2024-01-07T00:31:01;23.60;70.20
47825;DHT22;33589;48.242;14.676;2024-01-07T00:33:27;23.60;70.20
47825;DHT22;33589;48.242;14.676;2024-01-07T00:35:53;23.60;70.30
47825;DHT22;33589;48.242;14.676;2024-01-07T00:38:19;23.70;70.20
47825;DHT22;33589;48.242;14.676;2024-01-07T00:40:44;23.70;70.20
47825;DHT22;33589;48.242;14.676;2024-01-07T00:43:11;23.60;70.20
47825;DHT22;33589;48.242;14.676;2024-01-07T00:45:37;23.60;70.40
47825;DHT22;33589;48.242;14.676;2024-01-07T00:48:03;23.70;70.30
47825;DHT22;33589;48.242;14.676;2024-01-07T00:50:28;23.70;70.30
47825;DHT22;33589;48.242;14.676;2024-01-07T00:52:54;23.60;70.20
47825;DHT22;33589;48.242;14.676;2024-01-07T00:55:20;23.70;70.20
47825;DHT22;33589;48.242;14.676;2024-01-07T00:57:47;23.70;70.10
47825;DHT22;33589;48.242;14.676;2024-01-07T01:00:13;23.70;70.10
47825;DHT22;33589;48.242;14.676;2024-01-07T01:02:39;23.70;70.10
47825;DHT22;33589;48.242;14.676;2024-01-07T01:05:05;23.70;70.10
47825;DHT22;33589;48.242;14.676;2024-01-07T01:07:31;23.70;70.00
47825;DHT22;33589;48.242;14.676;2024-01-07T01:09:58;23.70;70.20
47825;DHT22;33589;48.242;14.676;2024-01-07T01:12:24;23.70;70.20
47825;DHT22;33589;48.242;14.676;2024-01-07T01:14:50;23.60;70.00
47825;DHT22;33589;48.242;14.676;2024-01-07T01:17:16;23.70;70.20
47825;DHT22;33589;48.242;14.676;2024-01-07T01:19:41;23.70;70.00
47825;DHT22;33589;48.242;14.676;2024-01-07T01:22:07;23.70;70.00
47825;DHT22;33589;48.242;14.676;2024-01-07T01:24:33;23.70;70.00
47825;DHT22;33589;48.242;14.676;2024-01-07T01:26:59;23.70;70.00
47825;DHT22;33589;48.242;14.676;2024-01-07T01:29:25;23.70;70.10
47825;DHT22;33589;48.242;14.676;2024-01-07T01:31:51;23.70;70.20
47825;DHT22;33589;48.242;14.676;2024-01-07T01:34:17;23.60;70.10
47825;DHT22;33589;48.242;14.676;2024-01-07T01:36:42;23.60;70.20
47825;DHT22;33589;48.242;14.676;2024-01-07T01:39:08;23.60;70.20
47825;DHT22;33589;48.242;14.676;2024-01-07T01:41:34;23.60;70.20
47825;DHT22;33589;48.242;14.676;2024-01-07T01:44:00;23.60;70.20
47825;DHT22;33589;48.242;14.676;2024-01-07T01:46:28;23.60;70.10
47825;DHT22;33589;48.242;14.676;2024-01-07T01:48:54;23.60;70.10
47825;DHT22;33589;48.242;14.676;2024-01-07T01:51:21;23.60;70.10
47825;DHT22;33589;48.242;14.676;2024-01-07T01:53:47;23.60;70.10
47825;DHT22;33589;48.242;14.676;2024-01-07T01:56:17;23.60;70.20
47825;DHT22;33589;48.242;14.676;2024-01-07T01:58:44;23.60;70.10
47825;DHT22;33589;48.242;14.676;2024-01-07T02:01:10;23.60;70.10
47825;DHT22;33589;48.242;14.676;2024-01-07T02:03:36;23.60;70.00
47825;DHT22;33589;48.242;14.676;2024-01-07T02:06:02;23.60;70.10
47825;DHT22;33589;48.242;14.676;2024-01-07T02:08:28;23.60;70.20
47825;DHT22;33589;48.242;14.676;2024-01-07T02:10:55;23.60;70.10
47825;DHT22;33589;48.242;14.676;2024-01-07T02:13:20;23.60;70.00
47825;DHT22;33589;48.242;14.676;2024-01-07T02:15:46;23.60;70.10
47825;DHT22;33589;48.242;14.676;2024-01-07T02:18:12;23.50;70.10
47825;DHT22;33589;48.242;14.676;2024-01-07T02:20:38;23.60;70.20
47825;DHT22;33589;48.242;14.676;2024-01-07T02:23:04;23.60;70.50
47825;DHT22;33589;48.242;14.676;2024-01-07T02:25:35;23.60;72.10
47825;DHT22;33589;48.242;14.676;2024-01-07T02:28:02;23.60;72.10
47825;DHT22;33589;48.242;14.676;2024-01-07T02:30:27;23.50;72.20
47825;DHT22;33589;48.242;14.676;2024-01-07T02:32:53;23.50;72.00
47825;DHT22;33589;48.242;14.676;2024-01-07T02:35:19;23.60;72.10
47825;DHT22;33589;48.242;14.676;2024-01-07T02:37:45;23.60;72.10
47825;DHT22;33589;48.242;14.676;2024-01-07T02:40:11;23.60;72.10
47825;DHT22;33589;48.242;14.676;2024-01-07T02:42:37;23.60;72.30
47825;DHT22;33589;48.242;14.676;2024-01-07T02:45:02;23.40;72.50
47825;DHT22;33589;48.242;14.676;2024-01-07T02:47:28;23.40;72.40
47825;DHT22;33589;48.242;14.676;2024-01-07T02:49:55;23.40;72.50
47825;DHT22;33589;48.242;14.676;2024-01-07T02:52:21;23.50;72.40
47825;DHT22;33589;48.242;14.676;2024-01-07T02:54:46;23.50;72.40
47825;DHT22;33589;48.242;14.676;2024-01-07T02:57:12;23.50;72.10
47825;DHT22;33589;48.242;14.676;2024-01-07T02:59:38;23.50;72.20
47825;DHT22;33589;48.242;14.676;2024-01-07T03:02:04;23.50;72.00
47825;DHT22;33589;48.242;14.676;2024-01-07T03:04:30;23.50;72.20
47825;DHT22;33589;48.242;14.676;2024-01-07T03:06:55;23.50;72.00
47825;DHT22;33589;48.242;14.676;2024-01-07T03:09:21;23.60;72.10
47825;DHT22;33589;48.242;14.676;2024-01-07T03:11:47;23.60;72.00
47825;DHT22;33589;48.242;14.676;2024-01-07T03:14:12;23.50;72.00
47825;DHT22;33589;48.242;14.676;2024-01-07T03:16:38;23.50;72.00
47825;DHT22;33589;48.242;14.676;2024-01-07T03:19:04;23.50;72.00
47825;DHT22;33589;48.242;14.676;2024-01-07T03:21:30;23.50;72.10
47825;DHT22;33589;48.242;14.676;2024-01-07T03:23:56;23.50;72.10
47825;DHT22;33589;48.242;14.676;2024-01-07T03:26:22;23.50;71.90
47825;DHT22;33589;48.242;14.676;2024-01-07T03:28:47;23.60;72.00
47825;DHT22;33589;48.242;14.676;2024-01-07T03:31:15;23.60;71.80
47825;DHT22;33589;48.242;14.676;2024-01-07T03:33:42;23.60;71.90
47825;DHT22;33589;48.242;14.676;2024-01-07T03:36:09;23.50;71.90
47825;DHT22;33589;48.242;14.676;2024-01-07T03:38:36;23.50;71.80
47825;DHT22;33589;48.242;14.676;2024-01-07T03:41:02;23.60;72.10
47825;DHT22;33589;48.242;14.676;2024-01-07T03:43:28;23.50;71.90
47825;DHT22;33589;48.242;14.676;2024-01-07T03:45:54;23.50;71.90
47825;DHT22;33589;48.242;14.676;2024-01-07T03:48:20;23.60;72.00
47825;DHT22;33589;48.242;14.676;2024-01-07T03:50:45;23.60;71.80
47825;DHT22;33589;48.242;14.676;2024-01-07T03:53:12;23.60;72.00
47825;DHT22;33589;48.242;14.676;2024-01-07T03:55:37;23.60;71.60
47825;DHT22;33589;48.242;14.676;2024-01-07T03:58:04;23.60;71.90
47825;DHT22;33589;48.242;14.676;2024-01-07T04:00:31;23.50;71.80
47825;DHT22;33589;48.242;14.676;2024-01-07T04:02:56;23.50;71.90
47825;DHT22;33589;48.242;14.676;2024-01-07T04:05:22;23.60;71.70
47825;DHT22;33589;48.242;14.676;2024-01-07T04:07:48;23.60;71.90
47825;DHT22;33589;48.242;14.676;2024-01-07T04:10:16;23.60;71.70
47825;DHT22;33589;48.242;14.676;2024-01-07T04:12:42;23.60;71.90
47825;DHT22;33589;48.242;14.676;2024-01-07T04:15:08;23.50;71.90
47825;DHT22;33589;48.242;14.676;2024-01-07T04:17:34;23.50;71.90
47825;DHT22;33589;48.242;14.676;2024-01-07T04:20:00;23.50;72.00
47825;DHT22;33589;48.242;14.676;2024-01-07T04:22:26;23.50;72.10
47825;DHT22;33589;48.242;14.676;2024-01-07T04:24:51;23.50;72.10
47825;DHT22;33589;48.242;14.676;2024-01-07T04:27:17;23.50;72.20
47825;DHT22;33589;48.242;14.676;2024-01-07T04:29:43;23.50;72.10
47825;DHT22;33589;48.242;14.676;2024-01-07T04:32:09;23.50;72.20
47825;DHT22;33589;48.242;14.676;2024-01-07T04:34:34;23.50;72.20
47825;DHT22;33589;48.242;14.676;2024-01-07T04:37:00;23.60;72.30
47825;DHT22;33589;48.242;14.676;2024-01-07T04:39:26;23.50;72.20
47825;DHT22;33589;48.242;14.676;2024-01-07T04:41:52;23.50;72.40
47825;DHT22;33589;48.242;14.676;2024-01-07T04:44:18;23.50;72.40
47825;DHT22;33589;48.242;14.676;2024-01-07T04:46:43;23.50;72.50
47825;DHT22;33589;48.242;14.676;2024-01-07T04:49:09;23.50;72.50
47825;DHT22;33589;48.242;14.676;2024-01-07T04:51:35;23.50;72.50
47825;DHT22;33589;48.242;14.676;2024-01-07T04:54:02;23.50;72.40
47825;DHT22;33589;48.242;14.676;2024-01-07T04:56:28;23.50;73.10
47825;DHT22;33589;48.242;14.676;2024-01-07T04:58:53;23.50;72.50
47825;DHT22;33589;48.242;14.676;2024-01-07T05:01:19;23.50;72.50
47825;DHT22;33589;48.242;14.676;2024-01-07T05:03:45;23.50;72.60
47825;DHT22;33589;48.242;14.676;2024-01-07T05:06:10;23.50;72.50
47825;DHT22;33589;48.242;14.676;2024-01-07T05:08:37;23.50;72.40
47825;DHT22;33589;48.242;14.676;2024-01-07T05:11:03;23.50;72.40
47825;DHT22;33589;48.242;14.676;2024-01-07T05:13:30;23.50;72.20
47825;DHT22;33589;48.242;14.676;2024-01-07T05:15:56;23.50;72.20
47825;DHT22;33589;48.242;14.676;2024-01-07T05:18:25;23.50;72.20
47825;DHT22;33589;48.242;14.676;2024-01-07T05:20:51;23.50;72.50
47825;DHT22;33589;48.242;14.676;2024-01-07T05:23:17;23.50;72.50
47825;DHT22;33589;48.242;14.676;2024-01-07T05:25:43;23.40;72.50
47825;DHT22;33589;48.242;14.676;2024-01-07T05:28:13;23.50;72.50
47825;DHT22;33589;48.242;14.676;2024-01-07T05:30:39;23.40;72.30
47825;DHT22;33589;48.242;14.676;2024-01-07T05:33:05;23.50;72.30
47825;DHT22;33589;48.242;14.676;2024-01-07T05:35:31;23.50;72.50
47825;DHT22;33589;48.242;14.676;2024-01-07T05:37:57;23.40;72.40
47825;DHT22;33589;48.242;14.676;2024-01-07T05:40:23;23.40;72.60
47825;DHT22;33589;48.242;14.676;2024-01-07T05:42:49;23.40;72.50
47825;DHT22;33589;48.242;14.676;2024-01-07T05:45:14;23.40;72.50
47825;DHT22;33589;48.242;14.676;2024-01-07T05:47:40;23.50;72.20
47825;DHT22;33589;48.242;14.676;2024-01-07T05:50:07;23.40;73.00
47825;DHT22;33589;48.242;14.676;2024-01-07T05:52:33;23.50;72.20
47825;DHT22;33589;48.242;14.676;2024-01-07T05:54:59;23.50;72.40
47825;DHT22;33589;48.242;14.676;2024-01-07T05:57:25;23.50;72.20
47825;DHT22;33589;48.242;14.676;2024-01-07T05:59:50;23.50;72.10
47825;DHT22;33589;48.242;14.676;2024-01-07T06:02:17;23.50;72.00
47825;DHT22;33589;48.242;14.676;2024-01-07T06:04:43;23.50;72.30
47825;DHT22;33589;48.242;14.676;2024-01-07T06:07:09;23.50;72.30
47825;DHT22;33589;48.242;14.676;2024-01-07T06:09:34;23.50;72.30
47825;DHT22;33589;48.242;14.676;2024-01-07T06:12:01;23.50;72.10
47825;DHT22;33589;48.242;14.676;2024-01-07T06:14:27;23.50;72.00
47825;DHT22;33589;48.242;14.676;2024-01-07T06:16:52;23.50;72.10
47825;DHT22;33589;48.242;14.676;2024-01-07T06:19:18;23.50;72.00
47825;DHT22;33589;48.242;14.676;2024-01-07T06:21:44;23.50;72.00
47825;DHT22;33589;48.242;14.676;2024-01-07T06:24:11;23.50;71.90
47825;DHT22;33589;48.242;14.676;2024-01-07T06:26:37;23.50;72.00
47825;DHT22;33589;48.242;14.676;2024-01-07T06:29:02;23.50;72.00
47825;DHT22;33589;48.242;14.676;2024-01-07T06:31:28;23.60;71.80
47825;DHT22;33589;48.242;14.676;2024-01-07T06:33:54;23.60;72.00
47825;DHT22;33589;48.242;14.676;2024-01-07T06:36:24;23.60;71.80
47825;DHT22;33589;48.242;14.676;2024-01-07T06:38:50;23.50;71.90
47825;DHT22;33589;48.242;14.676;2024-01-07T06:41:16;23.70;71.90
47825;DHT22;33589;48.242;14.676;2024-01-07T06:43:41;23.70;71.60
47825;DHT22;33589;48.242;14.676;2024-01-07T06:46:07;23.80;71.40
47825;DHT22;33589;48.242;14.676;2024-01-07T06:48:33;23.80;72.40
47825;DHT22;33589;48.242;14.676;2024-01-07T06:50:59;23.80;71.70
47825;DHT22;33589;48.242;14.676;2024-01-07T06:53:25;23.90;71.30
47825;DHT22;33589;48.242;14.676;2024-01-07T06:55:50;24.00;70.80
47825;DHT22;33589;48.242;14.676;2024-01-07T06:58:16;23.90;70.90
47825;DHT22;33589;48.242;14.676;2024-01-07T07:00:42;23.80;71.00
47825;DHT22;33589;48.242;14.676;2024-01-07T07:03:08;23.80;71.40
47825;DHT22;33589;48.242;14.676;2024-01-07T07:05:34;23.70;71.50
47825;DHT22;33589;48.242;14.676;2024-01-07T07:07:59;23.70;71.80
47825;DHT22;33589;48.242;14.676;2024-01-07T07:10:25;23.80;71.20
47825;DHT22;33589;48.242;14.676;2024-01-07T07:12:51;23.80;71.30
47825;DHT22;33589;48.242;14.676;2024-01-07T07:15:17;23.80;71.40
47825;DHT22;33589;48.242;14.676;2024-01-07T07:17:43;23.70;71.60
47825;DHT22;33589;48.242;14.676;2024-01-07T07:20:09;23.70;71.70
47825;DHT22;33589;48.242;14.676;2024-01-07T07:22:35;23.70;71.70
47825;DHT22;33589;48.242;14.676;2024-01-07T07:25:01;23.60;71.70
47825;DHT22;33589;48.242;14.676;2024-01-07T07:27:27;23.70;71.70
47825;DHT22;33589;48.242;14.676;2024-01-07T07:29:53;23.60;72.10
47825;DHT22;33589;48.242;14.676;2024-01-07T07:32:19;23.60;72.10
47825;DHT22;33589;48.242;14.676;2024-01-07T07:34:45;23.50;72.10
47825;DHT22;33589;48.242;14.676;2024-01-07T07:37:12;23.50;72.20
47825;DHT22;33589;48.242;14.676;2024-01-07T07:39:38;23.50;72.20
47825;DHT22;33589;48.242;14.676;2024-01-07T07:42:04;23.50;72.50
47825;DHT22;33589;48.242;14.676;2024-01-07T07:44:31;23.50;72.30
47825;DHT22;33589;48.242;14.676;2024-01-07T07:46:56;23.50;72.40
47825;DHT22;33589;48.242;14.676;2024-01-07T07:49:22;23.70;72.10
47825;DHT22;33589;48.242;14.676;2024-01-07T07:51:48;23.90;71.40
47825;DHT22;33589;48.242;14.676;2024-01-07T07:54:14;24.10;70.80
47825;DHT22;33589;48.242;14.676;2024-01-07T07:56:39;24.20;70.30
47825;DHT22;33589;48.242;14.676;2024-01-07T07:59:05;24.30;69.90
47825;DHT22;33589;48.242;14.676;2024-01-07T08:01:31;24.40;69.80
47825;DHT22;33589;48.242;14.676;2024-01-07T08:03:57;24.50;69.70
47825;DHT22;33589;48.242;14.676;2024-01-07T08:06:22;24.50;69.60
47825;DHT22;33589;48.242;14.676;2024-01-07T08:08:48;24.50;69.20
47825;DHT22;33589;48.242;14.676;2024-01-07T08:11:14;24.50;69.40
47825;DHT22;33589;48.242;14.676;2024-01-07T08:13:40;24.50;69.30
47825;DHT22;33589;48.242;14.676;2024-01-07T08:16:06;24.40;69.80
47825;DHT22;33589;48.242;14.676;2024-01-07T08:18:32;24.10;70.50
47825;DHT22;33589;48.242;14.676;2024-01-07T08:20:58;24.00;71.00
47825;DHT22;33589;48.242;14.676;2024-01-07T08:23:25;23.90;71.00
47825;DHT22;33589;48.242;14.676;2024-01-07T08:25:50;24.10;70.80
47825;DHT22;33589;48.242;14.676;2024-01-07T08:28:19;24.30;70.50
47825;DHT22;33589;48.242;14.676;2024-01-07T08:30:46;24.30;70.00
47825;DHT22;33589;48.242;14.676;2024-01-07T08:33:12;24.50;70.60
47825;DHT22;33589;48.242;14.676;2024-01-07T08:35:38;24.50;69.60
47825;DHT22;33589;48.242;14.676;2024-01-07T08:38:03;24.50;69.30
47825;DHT22;33589;48.242;14.676;2024-01-07T08:40:31;24.40;69.60
47825;DHT22;33589;48.242;14.676;2024-01-07T08:42:56;24.30;70.10
47825;DHT22;33589;48.242;14.676;2024-01-07T08:45:22;24.10;70.60
47825;DHT22;33589;48.242;14.676;2024-01-07T08:47:48;23.90;70.90
47825;DHT22;33589;48.242;14.676;2024-01-07T08:50:14;23.90;71.40
47825;DHT22;33589;48.242;14.676;2024-01-07T08:52:39;23.90;71.40
47825;DHT22;33589;48.242;14.676;2024-01-07T08:55:05;23.90;71.20
47825;DHT22;33589;48.242;14.676;2024-01-07T08:57:33;23.90;71.20
47825;DHT22;33589;48.242;14.676;2024-01-07T08:59:58;24.00;71.30
47825;DHT22;33589;48.242;14.676;2024-01-07T09:02:24;23.90;71.30
47825;DHT22;33589;48.242;14.676;2024-01-07T09:04:51;24.00;71.30
47825;DHT22;33589;48.242;14.676;2024-01-07T09:07:17;24.00;71.30
47825;DHT22;33589;48.242;14.676;2024-01-07T09:09:43;23.90;71.50
47825;DHT22;33589;48.242;14.676;2024-01-07T09:12:08;23.90;71.50
47825;DHT22;33589;48.242;14.676;2024-01-07T09:14:34;23.80;71.60
47825;DHT22;33589;48.242;14.676;2024-01-07T09:17:02;23.80;71.50
47825;DHT22;33589;48.242;14.676;2024-01-07T09:19:28;23.90;71.90
47825;DHT22;33589;48.242;14.676;2024-01-07T09:21:54;23.90;71.40
47825;DHT22;33589;48.242;14.676;2024-01-07T09:24:20;24.10;71.20
47825;DHT22;33589;48.242;14.676;2024-01-07T09:26:45;24.10;70.90
47825;DHT22;33589;48.242;14.676;2024-01-07T09:29:12;24.20;70.60
47825;DHT22;33589;48.242;14.676;2024-01-07T09:31:38;24.20;69.80
47825;DHT22;33589;48.242;14.676;2024-01-07T09:34:03;24.20;70.20
47825;DHT22;33589;48.242;14.676;2024-01-07T09:36:29;24.30;70.10
47825;DHT22;33589;48.242;14.676;2024-01-07T09:38:55;24.30;70.20
47825;DHT22;33589;48.242;14.676;2024-01-07T09:41:21;24.10;69.90
47825;DHT22;33589;48.242;14.676;2024-01-07T09:43:47;24.00;70.70
47825;DHT22;33589;48.242;14.676;2024-01-07T09:46:13;23.90;70.80
47825;DHT22;33589;48.242;14.676;2024-01-07T09:48:39;23.90;70.40
47825;DHT22;33589;48.242;14.676;2024-01-07T09:51:06;23.90;70.60
47825;DHT22;33589;48.242;14.676;2024-01-07T09:53:35;23.90;70.40
47825;DHT22;33589;48.242;14.676;2024-01-07T09:56:08;24.00;70.40
47825;DHT22;33589;48.242;14.676;2024-01-07T09:58:37;24.00;70.20
47825;DHT22;33589;48.242;14.676;2024-01-07T10:01:02;24.00;70.70
47825;DHT22;33589;48.242;14.676;2024-01-07T10:03:30;24.10;70.50
47825;DHT22;33589;48.242;14.676;2024-01-07T10:05:56;24.00;70.80
47825;DHT22;33589;48.242;14.676;2024-01-07T10:08:22;24.00;70.70
47825;DHT22;33589;48.242;14.676;2024-01-07T10:10:50;24.00;70.80
47825;DHT22;33589;48.242;14.676;2024-01-07T10:13:16;23.90;71.00
47825;DHT22;33589;48.242;14.676;2024-01-07T10:15:42;23.90;71.10
47825;DHT22;33589;48.242;14.676;2024-01-07T10:18:08;23.80;71.20
47825;DHT22;33589;48.242;14.676;2024-01-07T10:20:34;23.80;71.40
47825;DHT22;33589;48.242;14.676;2024-01-07T10:23:01;23.80;71.60
47825;DHT22;33589;48.242;14.676;2024-01-07T10:25:32;23.80;71.40
47825;DHT22;33589;48.242;14.676;2024-01-07T10:28:01;23.80;71.90
47825;DHT22;33589;48.242;14.676;2024-01-07T10:30:28;23.90;72.40
47825;DHT22;33589;48.242;14.676;2024-01-07T10:33:00;24.00;71.60
47825;DHT22;33589;48.242;14.676;2024-01-07T10:35:32;24.00;71.80
47825;DHT22;33589;48.242;14.676;2024-01-07T10:37:59;23.90;72.20
47825;DHT22;33589;48.242;14.676;2024-01-07T10:40:27;23.90;72.40
47825;DHT22;33589;48.242;14.676;2024-01-07T10:42:54;23.90;72.60
47825;DHT22;33589;48.242;14.676;2024-01-07T10:45:21;23.90;73.10
47825;DHT22;33589;48.242;14.676;2024-01-07T10:47:51;24.10;71.90
47825;DHT22;33589;48.242;14.676;2024-01-07T10:50:20;24.30;71.50
47825;DHT22;33589;48.242;14.676;2024-01-07T10:52:50;24.40;70.90
47825;DHT22;33589;48.242;14.676;2024-01-07T10:55:26;24.40;71.10
47825;DHT22;33589;48.242;14.676;2024-01-07T10:57:56;24.40;70.70
47825;DHT22;33589;48.242;14.676;2024-01-07T11:00:22;24.40;71.10
47825;DHT22;33589;48.242;14.676;2024-01-07T11:05:44;24.00;72.30
47825;DHT22;33589;48.242;14.676;2024-01-07T11:08:28;24.00;72.40
47825;DHT22;33589;48.242;14.676;2024-01-07T11:11:13;23.90;74.30
47825;DHT22;33589;48.242;14.676;2024-01-07T11:13:40;23.80;75.30
47825;DHT22;33589;48.242;14.676;2024-01-07T11:16:09;23.60;75.90
47825;DHT22;33589;48.242;14.676;2024-01-07T11:18:39;23.60;76.70
47825;DHT22;33589;48.242;14.676;2024-01-07T11:21:05;23.60;77.10
47825;DHT22;33589;48.242;14.676;2024-01-07T11:23:36;23.50;77.50
47825;DHT22;33589;48.242;14.676;2024-01-07T11:26:06;23.50;77.80
47825;DHT22;33589;48.242;14.676;2024-01-07T11:28:56;23.50;78.20
47825;DHT22;33589;48.242;14.676;2024-01-07T11:34:08;23.50;79.00
47825;DHT22;33589;48.242;14.676;2024-01-07T11:36:35;23.50;78.80
47825;DHT22;33589;48.242;14.676;2024-01-07T11:39:03;23.50;79.00
47825;DHT22;33589;48.242;14.676;2024-01-07T11:41:32;23.50;79.10
47825;DHT22;33589;48.242;14.676;2024-01-07T11:43:59;23.50;79.10
47825;DHT22;33589;48.242;14.676;2024-01-07T11:46:26;23.50;79.00
47825;DHT22;33589;48.242;14.676;2024-01-07T11:48:55;23.50;79.10
47825;DHT22;33589;48.242;14.676;2024-01-07T11:51:25;23.50;78.30
47825;DHT22;33589;48.242;14.676;2024-01-07T11:53:52;23.50;79.40
47825;DHT22;33589;48.242;14.676;2024-01-07T11:56:18;23.50;79.90
47825;DHT22;33589;48.242;14.676;2024-01-07T11:58:44;23.50;79.80
47825;DHT22;33589;48.242;14.676;2024-01-07T12:01:10;23.50;80.20
47825;DHT22;33589;48.242;14.676;2024-01-07T12:03:36;23.40;80.30
47825;DHT22;33589;48.242;14.676;2024-01-07T12:06:03;23.50;80.10
47825;DHT22;33589;48.242;14.676;2024-01-07T12:08:29;23.60;79.60
47825;DHT22;33589;48.242;14.676;2024-01-07T12:10:56;23.60;79.70
47825;DHT22;33589;48.242;14.676;2024-01-07T12:13:22;23.60;80.00
47825;DHT22;33589;48.242;14.676;2024-01-07T12:15:48;23.60;80.60
47825;DHT22;33589;48.242;14.676;2024-01-07T12:18:14;23.50;80.50
47825;DHT22;33589;48.242;14.676;2024-01-07T12:20:40;23.50;80.80
47825;DHT22;33589;48.242;14.676;2024-01-07T12:23:09;23.50;80.90
47825;DHT22;33589;48.242;14.676;2024-01-07T12:25:36;23.50;81.00
47825;DHT22;33589;48.242;14.676;2024-01-07T12:28:06;23.50;81.20
47825;DHT22;33589;48.242;14.676;2024-01-07T12:30:32;23.50;81.10
47825;DHT22;33589;48.242;14.676;2024-01-07T12:32:57;23.50;81.40
47825;DHT22;33589;48.242;14.676;2024-01-07T12:35:27;23.40;81.30
47825;DHT22;33589;48.242;14.676;2024-01-07T12:37:53;23.40;81.30
47825;DHT22;33589;48.242;14.676;2024-01-07T12:40:19;23.40;81.50
47825;DHT22;33589;48.242;14.676;2024-01-07T12:42:46;23.50;81.50
47825;DHT22;33589;48.242;14.676;2024-01-07T12:45:15;23.50;81.60
47825;DHT22;33589;48.242;14.676;2024-01-07T12:47:42;23.50;81.40
47825;DHT22;33589;48.242;14.676;2024-01-07T12:50:09;23.50;81.10
47825;DHT22;33589;48.242;14.676;2024-01-07T12:52:39;23.40;81.30
47825;DHT22;33589;48.242;14.676;2024-01-07T12:55:05;23.50;78.90
47825;DHT22;33589;48.242;14.676;2024-01-07T12:57:32;23.50;80.10
47825;DHT22;33589;48.242;14.676;2024-01-07T12:59:58;23.50;80.80
47825;DHT22;33589;48.242;14.676;2024-01-07T13:02:24;23.50;80.80
47825;DHT22;33589;48.242;14.676;2024-01-07T13:04:50;23.50;79.60
47825;DHT22;33589;48.242;14.676;2024-01-07T13:07:16;23.50;79.30
47825;DHT22;33589;48.242;14.676;2024-01-07T13:09:42;23.40;79.40
47825;DHT22;33589;48.242;14.676;2024-01-07T13:12:10;23.40;79.10
47825;DHT22;33589;48.242;14.676;2024-01-07T13:14:36;23.40;79.00
47825;DHT22;33589;48.242;14.676;2024-01-07T13:17:02;23.40;78.90
47825;DHT22;33589;48.242;14.676;2024-01-07T13:19:28;23.40;78.90
47825;DHT22;33589;48.242;14.676;2024-01-07T13:21:55;23.40;78.80
47825;DHT22;33589;48.242;14.676;2024-01-07T13:24:23;23.40;78.60
47825;DHT22;33589;48.242;14.676;2024-01-07T13:26:49;23.40;78.60
47825;DHT22;33589;48.242;14.676;2024-01-07T13:29:15;23.40;78.10
47825;DHT22;33589;48.242;14.676;2024-01-07T13:31:41;23.40;79.20
47825;DHT22;33589;48.242;14.676;2024-01-07T13:34:07;23.40;79.40
47825;DHT22;33589;48.242;14.676;2024-01-07T13:36:33;23.40;79.70
47825;DHT22;33589;48.242;14.676;2024-01-07T13:38:59;23.50;80.00
47825;DHT22;33589;48.242;14.676;2024-01-07T13:43:54;23.50;79.30
47825;DHT22;33589;48.242;14.676;2024-01-07T13:46:21;23.40;79.20
47825;DHT22;33589;48.242;14.676;2024-01-07T13:48:49;23.50;79.60
47825;DHT22;33589;48.242;14.676;2024-01-07T13:51:14;23.60;79.20
47825;DHT22;33589;48.242;14.676;2024-01-07T13:53:40;23.60;79.10
47825;DHT22;33589;48.242;14.676;2024-01-07T13:56:06;23.70;78.20
47825;DHT22;33589;48.242;14.676;2024-01-07T13:58:32;23.70;76.50
47825;DHT22;33589;48.242;14.676;2024-01-07T14:00:58;23.70;76.30
47825;DHT22;33589;48.242;14.676;2024-01-07T14:03:24;23.60;76.50
47825;DHT22;33589;48.242;14.676;2024-01-07T14:05:50;23.70;75.90
47825;DHT22;33589;48.242;14.676;2024-01-07T14:08:17;23.70;75.70
47825;DHT22;33589;48.242;14.676;2024-01-07T14:10:42;23.80;75.50
47825;DHT22;33589;48.242;14.676;2024-01-07T14:13:08;23.80;75.30
47825;DHT22;33589;48.242;14.676;2024-01-07T14:15:34;23.90;75.60
47825;DHT22;33589;48.242;14.676;2024-01-07T14:18:00;23.90;75.30
47825;DHT22;33589;48.242;14.676;2024-01-07T14:20:27;24.00;75.20
47825;DHT22;33589;48.242;14.676;2024-01-07T14:22:54;24.10;75.00
47825;DHT22;33589;48.242;14.676;2024-01-07T14:25:20;24.00;75.00
47825;DHT22;33589;48.242;14.676;2024-01-07T14:27:46;24.00;75.40
47825;DHT22;33589;48.242;14.676;2024-01-07T14:30:13;24.10;75.30
47825;DHT22;33589;48.242;14.676;2024-01-07T14:32:42;24.10;75.30
47825;DHT22;33589;48.242;14.676;2024-01-07T14:35:08;24.10;75.30
47825;DHT22;33589;48.242;14.676;2024-01-07T14:37:34;24.00;75.40
47825;DHT22;33589;48.242;14.676;2024-01-07T14:40:00;24.10;75.90
47825;DHT22;33589;48.242;14.676;2024-01-07T14:42:25;24.00;75.70
47825;DHT22;33589;48.242;14.676;2024-01-07T14:44:51;23.90;75.90
47825;DHT22;33589;48.242;14.676;2024-01-07T14:47:17;23.80;75.90
47825;DHT22;33589;48.242;14.676;2024-01-07T14:49:43;23.80;76.10
47825;DHT22;33589;48.242;14.676;2024-01-07T14:52:09;23.80;76.00
47825;DHT22;33589;48.242;14.676;2024-01-07T14:54:34;23.80;76.10
47825;DHT22;33589;48.242;14.676;2024-01-07T14:57:02;23.80;76.00
47825;DHT22;33589;48.242;14.676;2024-01-07T14:59:29;23.70;76.00
47825;DHT22;33589;48.242;14.676;2024-01-07T15:01:55;23.70;76.10
47825;DHT22;33589;48.242;14.676;2024-01-07T15:04:21;23.70;76.00
47825;DHT22;33589;48.242;14.676;2024-01-07T15:06:46;23.70;75.90
47825;DHT22;33589;48.242;14.676;2024-01-07T15:09:14;23.70;75.80
47825;DHT22;33589;48.242;14.676;2024-01-07T15:11:40;23.70;75.80
47825;DHT22;33589;48.242;14.676;2024-01-07T15:14:12;23.70;76.50
47825;DHT22;33589;48.242;14.676;2024-01-07T15:16:38;23.70;78.60
47825;DHT22;33589;48.242;14.676;2024-01-07T15:19:03;23.70;79.10